sensor_id;sensor_type;location;lat;lon;timestamp;P1;durP1;ratioP1;P2;durP2;ratioP2
22332;SDS011;11334;36.986;-121.936;2023-05-21T00:01:06;4.22;;;1.95;;
22332;SDS011;11334;36.986;-121.936;2023-05-21T00:03:33;7.10;;;1.88;;
22332;SDS011;11334;36.986;-121.936;2023-05-21T00:06:00;5.22;;;1.60;;
22332;SDS011;11334;36.986;-121.936;2023-05-21T00:08:27;7.03;;;2.17;;
22332;SDS011;11334;36.986;-121.936;2023-05-21T00:10:54;4.72;;;1.77;;
22332;SDS011;11334;36.986;-121.936;2023-05-21T00:13:20;3.63;;;1.60;;
22332;SDS011;11334;36.986;-121.936;2023-05-21T00:15:46;7.30;;;2.05;;
22332;SDS011;11334;36.986;-121.936;2023-05-21T00:18:13;3.47;;;1.85;;
22332;SDS011;11334;36.986;-121.936;2023-05-21T00:20:39;5.47;;;2.03;;
22332;SDS011;11334;36.986;-121.936;2023-05-21T00:23:05;4.65;;;1.90;;
22332;SDS011;11334;36.986;-121.936;2023-05-21T00:25:32;5.85;;;2.15;;
22332;SDS011;11334;36.986;-121.936;2023-05-21T00:27:58;4.60;;;1.67;;
22332;SDS011;11334;36.986;-121.936;2023-05-21T00:30:24;5.10;;;1.70;;
22332;SDS011;11334;36.986;-121.936;2023-05-21T00:32:50;3.83;;;1.80;;
22332;SDS011;11334;36.986;-121.936;2023-05-21T00:35:17;2.95;;;1.48;;
22332;SDS011;11334;36.986;-121.936;2023-05-21T00:37:43;3.28;;;1.48;;
22332;SDS011;11334;36.986;-121.936;2023-05-21T00:40:11;3.63;;;1.60;;
22332;SDS011;11334;36.986;-121.936;2023-05-21T00:42:38;5.75;;;1.95;;
22332;SDS011;11334;36.986;-121.936;2023-05-21T00:45:05;3.72;;;1.60;;
22332;SDS011;11334;36.986;-121.936;2023-05-21T00:47:32;4.32;;;1.90;;
22332;SDS011;11334;36.986;-121.936;2023-05-21T00:50:00;4.97;;;1.55;;
22332;SDS011;11334;36.986;-121.936;2023-05-21T00:52:28;5.70;;;1.77;;
22332;SDS011;11334;36.986;-121.936;2023-05-21T00:54:54;3.05;;;1.50;;
22332;SDS011;11334;36.986;-121.936;2023-05-21T00:57:21;5.18;;;1.67;;
22332;SDS011;11334;36.986;-121.936;2023-05-21T00:59:51;8.85;;;2.08;;
22332;SDS011;11334;36.986;-121.936;2023-05-21T01:02:18;6.78;;;2.13;;
22332;SDS011;11334;36.986;-121.936;2023-05-21T01:04:44;4.55;;;1.83;;
22332;SDS011;11334;36.986;-121.936;2023-05-21T01:07:11;4.80;;;1.70;;
22332;SDS011;11334;36.986;-121.936;2023-05-21T01:09:39;5.32;;;1.80;;
22332;SDS011;11334;36.986;-121.936;2023-05-21T01:12:07;6.70;;;1.42;;
22332;SDS011;11334;36.986;-121.936;2023-05-21T01:14:35;4.82;;;2.08;;
22332;SDS011;11334;36.986;-121.936;2023-05-21T01:17:03;5.30;;;1.85;;
22332;SDS011;11334;36.986;-121.936;2023-05-21T01:19:34;4.30;;;2.13;;
22332;SDS011;11334;36.986;-121.936;2023-05-21T01:22:05;2.83;;;1.52;;
22332;SDS011;11334;36.986;-121.936;2023-05-21T01:24:32;3.60;;;1.75;;
22332;SDS011;11334;36.986;-121.936;2023-05-21T01:27:00;4.90;;;2.40;;
22332;SDS011;11334;36.986;-121.936;2023-05-21T01:29:27;6.10;;;2.00;;
22332;SDS011;11334;36.986;-121.936;2023-05-21T01:31:58;5.35;;;2.40;;
22332;SDS011;11334;36.986;-121.936;2023-05-21T01:34:31;6.35;;;1.95;;
22332;SDS011;11334;36.986;-121.936;2023-05-21T01:37:16;6.30;;;1.92;;
22332;SDS011;11334;36.986;-121.936;2023-05-21T01:39:55;6.65;;;2.58;;
22332;SDS011;11334;36.986;-121.936;2023-05-21T01:42:28;4.80;;;2.13;;
22332;SDS011;11334;36.986;-121.936;2023-05-21T01:44:55;6.30;;;1.90;;
22332;SDS011;11334;36.986;-121.936;2023-05-21T01:47:24;4.40;;;1.88;;
22332;SDS011;11334;36.986;-121.936;2023-05-21T01:49:53;4.85;;;2.00;;
22332;SDS011;11334;36.986;-121.936;2023-05-21T01:52:20;5.53;;;1.73;;
22332;SDS011;11334;36.986;-121.936;2023-05-21T01:54:47;6.80;;;2.30;;
22332;SDS011;11334;36.986;-121.936;2023-05-21T01:57:15;5.57;;;2.03;;
22332;SDS011;11334;36.986;-121.936;2023-05-21T01:59:42;4.03;;;1.77;;
22332;SDS011;11334;36.986;-121.936;2023-05-21T02:02:09;4.93;;;1.52;;
22332;SDS011;11334;36.986;-121.936;2023-05-21T02:04:36;6.47;;;2.05;;
22332;SDS011;11334;36.986;-121.936;2023-05-21T02:07:05;3.63;;;1.85;;
22332;SDS011;11334;36.986;-121.936;2023-05-21T02:09:32;7.25;;;1.90;;
22332;SDS011;11334;36.986;-121.936;2023-05-21T02:11:58;3.28;;;1.70;;
22332;SDS011;11334;36.986;-121.936;2023-05-21T02:14:25;4.68;;;1.50;;
22332;SDS011;11334;36.986;-121.936;2023-05-21T02:16:54;3.65;;;1.90;;
22332;SDS011;11334;36.986;-121.936;2023-05-21T02:19:21;2.63;;;1.70;;
22332;SDS011;11334;36.986;-121.936;2023-05-21T02:21:47;4.63;;;1.40;;
22332;SDS011;11334;36.986;-121.936;2023-05-21T02:24:13;4.18;;;1.30;;
22332;SDS011;11334;36.986;-121.936;2023-05-21T02:26:39;5.25;;;1.38;;
22332;SDS011;11334;36.986;-121.936;2023-05-21T02:29:06;4.40;;;1.95;;
22332;SDS011;11334;36.986;-121.936;2023-05-21T02:31:33;4.22;;;1.67;;
22332;SDS011;11334;36.986;-121.936;2023-05-21T02:33:59;3.00;;;1.50;;
22332;SDS011;11334;36.986;-121.936;2023-05-21T02:36:25;3.72;;;1.60;;
22332;SDS011;11334;36.986;-121.936;2023-05-21T02:38:53;4.70;;;1.52;;
22332;SDS011;11334;36.986;-121.936;2023-05-21T02:41:21;4.10;;;1.80;;
22332;SDS011;11334;36.986;-121.936;2023-05-21T02:43:48;2.90;;;1.80;;
22332;SDS011;11334;36.986;-121.936;2023-05-21T02:46:14;4.40;;;1.85;;
22332;SDS011;11334;36.986;-121.936;2023-05-21T02:48:40;3.40;;;1.65;;
22332;SDS011;11334;36.986;-121.936;2023-05-21T02:51:06;7.32;;;3.17;;
22332;SDS011;11334;36.986;-121.936;2023-05-21T02:53:33;4.82;;;2.33;;
22332;SDS011;11334;36.986;-121.936;2023-05-21T02:55:59;5.45;;;2.40;;
22332;SDS011;11334;36.986;-121.936;2023-05-21T02:58:25;8.35;;;2.50;;
22332;SDS011;11334;36.986;-121.936;2023-05-21T03:00:54;7.53;;;1.85;;
22332;SDS011;11334;36.986;-121.936;2023-05-21T03:03:20;4.50;;;1.90;;
22332;SDS011;11334;36.986;-121.936;2023-05-21T03:05:47;6.38;;;2.40;;
22332;SDS011;11334;36.986;-121.936;2023-05-21T03:08:13;7.85;;;2.05;;
22332;SDS011;11334;36.986;-121.936;2023-05-21T03:10:39;6.40;;;2.08;;
22332;SDS011;11334;36.986;-121.936;2023-05-21T03:13:05;4.82;;;2.10;;
22332;SDS011;11334;36.986;-121.936;2023-05-21T03:15:32;5.57;;;1.73;;
22332;SDS011;11334;36.986;-121.936;2023-05-21T03:17:58;5.43;;;2.05;;
22332;SDS011;11334;36.986;-121.936;2023-05-21T03:20:24;5.60;;;2.58;;
22332;SDS011;11334;36.986;-121.936;2023-05-21T03:22:52;8.45;;;2.13;;
22332;SDS011;11334;36.986;-121.936;2023-05-21T03:25:20;12.13;;;2.50;;
22332;SDS011;11334;36.986;-121.936;2023-05-21T03:27:49;6.15;;;2.47;;
22332;SDS011;11334;36.986;-121.936;2023-05-21T03:30:16;4.97;;;1.92;;
22332;SDS011;11334;36.986;-121.936;2023-05-21T03:32:42;4.95;;;2.03;;
22332;SDS011;11334;36.986;-121.936;2023-05-21T03:35:09;7.25;;;2.47;;
22332;SDS011;11334;36.986;-121.936;2023-05-21T03:37:35;6.45;;;2.45;;
22332;SDS011;11334;36.986;-121.936;2023-05-21T03:40:01;5.90;;;2.17;;
22332;SDS011;11334;36.986;-121.936;2023-05-21T03:42:28;5.68;;;1.98;;
22332;SDS011;11334;36.986;-121.936;2023-05-21T03:44:55;5.68;;;1.92;;
22332;SDS011;11334;36.986;-121.936;2023-05-21T03:47:21;7.28;;;2.20;;
22332;SDS011;11334;36.986;-121.936;2023-05-21T03:49:47;5.40;;;1.85;;
22332;SDS011;11334;36.986;-121.936;2023-05-21T03:52:13;10.13;;;2.83;;
22332;SDS011;11334;36.986;-121.936;2023-05-21T03:54:40;8.85;;;2.25;;
22332;SDS011;11334;36.986;-121.936;2023-05-21T03:57:06;5.50;;;2.55;;
22332;SDS011;11334;36.986;-121.936;2023-05-21T03:59:32;7.22;;;2.28;;
22332;SDS011;11334;36.986;-121.936;2023-05-21T04:01:58;5.32;;;2.40;;
22332;SDS011;11334;36.986;-121.936;2023-05-21T04:04:25;9.60;;;2.50;;
22332;SDS011;11334;36.986;-121.936;2023-05-21T04:06:53;6.22;;;2.00;;
22332;SDS011;11334;36.986;-121.936;2023-05-21T04:09:20;4.18;;;2.20;;
22332;SDS011;11334;36.986;-121.936;2023-05-21T04:11:46;6.72;;;2.47;;
22332;SDS011;11334;36.986;-121.936;2023-05-21T04:14:12;5.47;;;2.10;;
22332;SDS011;11334;36.986;-121.936;2023-05-21T04:16:39;7.15;;;2.38;;
22332;SDS011;11334;36.986;-121.936;2023-05-21T04:19:08;5.38;;;2.63;;
22332;SDS011;11334;36.986;-121.936;2023-05-21T04:21:34;9.30;;;2.17;;
22332;SDS011;11334;36.986;-121.936;2023-05-21T04:24:00;8.20;;;2.35;;
22332;SDS011;11334;36.986;-121.936;2023-05-21T04:26:28;7.63;;;2.00;;
22332;SDS011;11334;36.986;-121.936;2023-05-21T04:28:58;7.30;;;2.33;;
22332;SDS011;11334;36.986;-121.936;2023-05-21T04:31:29;6.15;;;2.10;;
22332;SDS011;11334;36.986;-121.936;2023-05-21T04:33:56;8.20;;;2.35;;
22332;SDS011;11334;36.986;-121.936;2023-05-21T04:36:23;8.68;;;2.28;;
22332;SDS011;11334;36.986;-121.936;2023-05-21T04:38:49;5.47;;;1.70;;
22332;SDS011;11334;36.986;-121.936;2023-05-21T04:41:16;7.70;;;2.15;;
22332;SDS011;11334;36.986;-121.936;2023-05-21T04:43:43;7.25;;;2.45;;
22332;SDS011;11334;36.986;-121.936;2023-05-21T04:46:09;10.57;;;2.75;;
22332;SDS011;11334;36.986;-121.936;2023-05-21T04:48:35;10.35;;;2.55;;
22332;SDS011;11334;36.986;-121.936;2023-05-21T04:51:01;6.65;;;2.05;;
22332;SDS011;11334;36.986;-121.936;2023-05-21T04:53:30;5.30;;;2.17;;
22332;SDS011;11334;36.986;-121.936;2023-05-21T04:55:56;5.20;;;2.15;;
22332;SDS011;11334;36.986;-121.936;2023-05-21T04:58:23;7.38;;;2.38;;
22332;SDS011;11334;36.986;-121.936;2023-05-21T05:00:50;7.28;;;2.28;;
22332;SDS011;11334;36.986;-121.936;2023-05-21T05:03:17;7.07;;;2.70;;
22332;SDS011;11334;36.986;-121.936;2023-05-21T05:05:44;5.53;;;2.28;;
22332;SDS011;11334;36.986;-121.936;2023-05-21T05:08:10;6.50;;;2.40;;
22332;SDS011;11334;36.986;-121.936;2023-05-21T05:10:36;4.35;;;2.55;;
22332;SDS011;11334;36.986;-121.936;2023-05-21T05:13:03;6.35;;;2.47;;
22332;SDS011;11334;36.986;-121.936;2023-05-21T05:15:29;6.70;;;2.67;;
22332;SDS011;11334;36.986;-121.936;2023-05-21T05:17:55;6.07;;;2.58;;
22332;SDS011;11334;36.986;-121.936;2023-05-21T05:20:21;5.28;;;2.60;;
22332;SDS011;11334;36.986;-121.936;2023-05-21T05:22:48;6.82;;;3.00;;
22332;SDS011;11334;36.986;-121.936;2023-05-21T05:25:14;6.95;;;2.17;;
22332;SDS011;11334;36.986;-121.936;2023-05-21T05:27:40;3.42;;;2.53;;
22332;SDS011;11334;36.986;-121.936;2023-05-21T05:30:07;7.70;;;2.80;;
22332;SDS011;11334;36.986;-121.936;2023-05-21T05:32:33;4.20;;;2.28;;
22332;SDS011;11334;36.986;-121.936;2023-05-21T05:34:59;4.00;;;2.22;;
22332;SDS011;11334;36.986;-121.936;2023-05-21T05:37:26;6.30;;;2.63;;
22332;SDS011;11334;36.986;-121.936;2023-05-21T05:39:53;10.80;;;3.15;;
22332;SDS011;11334;36.986;-121.936;2023-05-21T05:42:19;7.72;;;3.30;;
22332;SDS011;11334;36.986;-121.936;2023-05-21T05:44:45;6.22;;;2.40;;
22332;SDS011;11334;36.986;-121.936;2023-05-21T05:47:11;6.75;;;2.28;;
22332;SDS011;11334;36.986;-121.936;2023-05-21T05:49:37;7.25;;;2.28;;
22332;SDS011;11334;36.986;-121.936;2023-05-21T05:52:04;7.25;;;2.38;;
22332;SDS011;11334;36.986;-121.936;2023-05-21T05:54:30;4.63;;;2.00;;
22332;SDS011;11334;36.986;-121.936;2023-05-21T05:56:57;8.52;;;2.88;;
22332;SDS011;11334;36.986;-121.936;2023-05-21T05:59:23;6.30;;;2.28;;
22332;SDS011;11334;36.986;-121.936;2023-05-21T06:01:49;7.57;;;2.05;;
22332;SDS011;11334;36.986;-121.936;2023-05-21T06:04:15;5.55;;;2.45;;
22332;SDS011;11334;36.986;-121.936;2023-05-21T06:06:42;6.03;;;2.55;;
22332;SDS011;11334;36.986;-121.936;2023-05-21T06:09:08;5.75;;;2.53;;
22332;SDS011;11334;36.986;-121.936;2023-05-21T06:11:34;4.72;;;3.00;;
22332;SDS011;11334;36.986;-121.936;2023-05-21T06:14:00;9.18;;;3.70;;
22332;SDS011;11334;36.986;-121.936;2023-05-21T06:16:27;5.25;;;2.88;;
22332;SDS011;11334;36.986;-121.936;2023-05-21T06:18:55;7.50;;;2.80;;
22332;SDS011;11334;36.986;-121.936;2023-05-21T06:21:22;5.20;;;2.72;;
22332;SDS011;11334;36.986;-121.936;2023-05-21T06:23:48;8.02;;;2.30;;
22332;SDS011;11334;36.986;-121.936;2023-05-21T06:26:14;5.35;;;2.85;;
22332;SDS011;11334;36.986;-121.936;2023-05-21T06:28:43;5.50;;;2.90;;
22332;SDS011;11334;36.986;-121.936;2023-05-21T06:31:09;8.18;;;3.53;;
22332;SDS011;11334;36.986;-121.936;2023-05-21T06:33:36;4.68;;;3.05;;
22332;SDS011;11334;36.986;-121.936;2023-05-21T06:36:02;7.72;;;3.50;;
22332;SDS011;11334;36.986;-121.936;2023-05-21T06:38:28;9.57;;;3.63;;
22332;SDS011;11334;36.986;-121.936;2023-05-21T06:40:54;5.68;;;3.45;;
22332;SDS011;11334;36.986;-121.936;2023-05-21T06:43:22;6.10;;;4.10;;
22332;SDS011;11334;36.986;-121.936;2023-05-21T06:45:49;5.72;;;3.53;;
22332;SDS011;11334;36.986;-121.936;2023-05-21T06:48:15;4.70;;;3.13;;
22332;SDS011;11334;36.986;-121.936;2023-05-21T06:50:42;5.70;;;3.63;;
22332;SDS011;11334;36.986;-121.936;2023-05-21T06:53:08;6.43;;;3.13;;
22332;SDS011;11334;36.986;-121.936;2023-05-21T06:55:35;7.47;;;3.67;;
22332;SDS011;11334;36.986;-121.936;2023-05-21T06:58:01;8.32;;;3.47;;
22332;SDS011;11334;36.986;-121.936;2023-05-21T07:00:27;7.38;;;3.58;;
22332;SDS011;11334;36.986;-121.936;2023-05-21T07:02:53;8.10;;;2.90;;
22332;SDS011;11334;36.986;-121.936;2023-05-21T07:05:19;6.05;;;3.08;;
22332;SDS011;11334;36.986;-121.936;2023-05-21T07:07:46;7.40;;;3.58;;
22332;SDS011;11334;36.986;-121.936;2023-05-21T07:10:12;6.70;;;4.15;;
22332;SDS011;11334;36.986;-121.936;2023-05-21T07:12:38;6.78;;;3.58;;
22332;SDS011;11334;36.986;-121.936;2023-05-21T07:15:05;8.02;;;3.60;;
22332;SDS011;11334;36.986;-121.936;2023-05-21T07:17:33;7.82;;;3.40;;
22332;SDS011;11334;36.986;-121.936;2023-05-21T07:19:59;6.68;;;3.42;;
22332;SDS011;11334;36.986;-121.936;2023-05-21T07:22:26;4.90;;;3.10;;
22332;SDS011;11334;36.986;-121.936;2023-05-21T07:24:52;7.15;;;2.92;;
22332;SDS011;11334;36.986;-121.936;2023-05-21T07:27:18;10.93;;;3.67;;
22332;SDS011;11334;36.986;-121.936;2023-05-21T07:29:44;9.57;;;3.85;;
22332;SDS011;11334;36.986;-121.936;2023-05-21T07:32:11;9.80;;;3.67;;
22332;SDS011;11334;36.986;-121.936;2023-05-21T07:34:37;6.47;;;3.05;;
22332;SDS011;11334;36.986;-121.936;2023-05-21T07:37:03;10.60;;;3.78;;
22332;SDS011;11334;36.986;-121.936;2023-05-21T07:39:30;8.63;;;3.95;;
22332;SDS011;11334;36.986;-121.936;2023-05-21T07:41:56;9.65;;;3.83;;
22332;SDS011;11334;36.986;-121.936;2023-05-21T07:44:22;9.40;;;3.50;;
22332;SDS011;11334;36.986;-121.936;2023-05-21T07:46:48;8.43;;;3.35;;
22332;SDS011;11334;36.986;-121.936;2023-05-21T07:49:15;11.57;;;3.80;;
22332;SDS011;11334;36.986;-121.936;2023-05-21T07:51:41;8.10;;;3.75;;
22332;SDS011;11334;36.986;-121.936;2023-05-21T07:54:09;6.35;;;2.97;;
22332;SDS011;11334;36.986;-121.936;2023-05-21T07:56:35;5.47;;;2.67;;
22332;SDS011;11334;36.986;-121.936;2023-05-21T07:59:04;7.70;;;2.58;;
22332;SDS011;11334;36.986;-121.936;2023-05-21T08:01:31;5.38;;;2.53;;
22332;SDS011;11334;36.986;-121.936;2023-05-21T08:03:57;5.10;;;2.42;;
22332;SDS011;11334;36.986;-121.936;2023-05-21T08:06:30;5.72;;;2.20;;
22332;SDS011;11334;36.986;-121.936;2023-05-21T08:09:02;4.30;;;2.20;;
22332;SDS011;11334;36.986;-121.936;2023-05-21T08:11:28;3.10;;;1.75;;
22332;SDS011;11334;36.986;-121.936;2023-05-21T08:13:55;6.22;;;2.63;;
22332;SDS011;11334;36.986;-121.936;2023-05-21T08:16:21;6.70;;;2.30;;
22332;SDS011;11334;36.986;-121.936;2023-05-21T08:18:49;3.88;;;2.15;;
22332;SDS011;11334;36.986;-121.936;2023-05-21T08:21:16;2.63;;;2.25;;
22332;SDS011;11334;36.986;-121.936;2023-05-21T08:23:42;4.25;;;2.13;;
22332;SDS011;11334;36.986;-121.936;2023-05-21T08:26:09;5.10;;;2.45;;
22332;SDS011;11334;36.986;-121.936;2023-05-21T08:28:37;3.78;;;2.42;;
22332;SDS011;11334;36.986;-121.936;2023-05-21T08:31:03;4.95;;;2.20;;
22332;SDS011;11334;36.986;-121.936;2023-05-21T08:33:30;4.68;;;2.20;;
22332;SDS011;11334;36.986;-121.936;2023-05-21T08:35:56;5.63;;;2.97;;
22332;SDS011;11334;36.986;-121.936;2023-05-21T08:38:23;5.88;;;2.55;;
22332;SDS011;11334;36.986;-121.936;2023-05-21T08:40:49;3.55;;;2.40;;
22332;SDS011;11334;36.986;-121.936;2023-05-21T08:43:17;6.35;;;3.28;;
22332;SDS011;11334;36.986;-121.936;2023-05-21T08:45:44;6.65;;;2.85;;
22332;SDS011;11334;36.986;-121.936;2023-05-21T08:48:17;5.47;;;2.55;;
22332;SDS011;11334;36.986;-121.936;2023-05-21T08:50:48;6.25;;;2.50;;
22332;SDS011;11334;36.986;-121.936;2023-05-21T08:53:16;8.45;;;2.67;;
22332;SDS011;11334;36.986;-121.936;2023-05-21T08:55:42;3.40;;;1.90;;
22332;SDS011;11334;36.986;-121.936;2023-05-21T08:58:09;4.85;;;2.03;;
22332;SDS011;11334;36.986;-121.936;2023-05-21T09:00:35;3.72;;;1.95;;
22332;SDS011;11334;36.986;-121.936;2023-05-21T09:03:03;5.82;;;2.58;;
22332;SDS011;11334;36.986;-121.936;2023-05-21T09:05:34;6.80;;;2.50;;
22332;SDS011;11334;36.986;-121.936;2023-05-21T09:08:05;5.88;;;2.40;;
22332;SDS011;11334;36.986;-121.936;2023-05-21T09:10:38;6.13;;;2.53;;
22332;SDS011;11334;36.986;-121.936;2023-05-21T09:13:12;6.18;;;2.70;;
22332;SDS011;11334;36.986;-121.936;2023-05-21T09:15:41;5.78;;;2.22;;
22332;SDS011;11334;36.986;-121.936;2023-05-21T09:18:11;5.18;;;2.88;;
22332;SDS011;11334;36.986;-121.936;2023-05-21T09:20:38;5.78;;;2.50;;
22332;SDS011;11334;36.986;-121.936;2023-05-21T09:23:06;8.57;;;2.65;;
22332;SDS011;11334;36.986;-121.936;2023-05-21T09:25:41;7.85;;;3.50;;
22332;SDS011;11334;36.986;-121.936;2023-05-21T09:28:12;8.60;;;2.85;;
22332;SDS011;11334;36.986;-121.936;2023-05-21T09:30:46;4.07;;;2.55;;
22332;SDS011;11334;36.986;-121.936;2023-05-21T09:33:23;11.52;;;3.40;;
22332;SDS011;11334;36.986;-121.936;2023-05-21T09:35:50;7.85;;;2.80;;
22332;SDS011;11334;36.986;-121.936;2023-05-21T09:38:17;5.47;;;2.75;;
22332;SDS011;11334;36.986;-121.936;2023-05-21T09:40:46;9.68;;;3.00;;
22332;SDS011;11334;36.986;-121.936;2023-05-21T09:43:13;10.00;;;3.20;;
22332;SDS011;11334;36.986;-121.936;2023-05-21T09:45:55;5.05;;;2.55;;
22332;SDS011;11334;36.986;-121.936;2023-05-21T09:48:41;7.22;;;3.13;;
22332;SDS011;11334;36.986;-121.936;2023-05-21T09:51:14;8.73;;;3.13;;
22332;SDS011;11334;36.986;-121.936;2023-05-21T09:56:26;6.88;;;3.28;;
22332;SDS011;11334;36.986;-121.936;2023-05-21T09:58:57;9.82;;;3.13;;
22332;SDS011;11334;36.986;-121.936;2023-05-21T10:01:25;8.25;;;3.20;;
22332;SDS011;11334;36.986;-121.936;2023-05-21T10:03:54;9.45;;;3.08;;
22332;SDS011;11334;36.986;-121.936;2023-05-21T10:06:28;6.82;;;3.15;;
22332;SDS011;11334;36.986;-121.936;2023-05-21T10:08:58;8.45;;;2.80;;
22332;SDS011;11334;36.986;-121.936;2023-05-21T10:11:29;5.85;;;2.85;;
22332;SDS011;11334;36.986;-121.936;2023-05-21T10:13:57;9.43;;;3.20;;
22332;SDS011;11334;36.986;-121.936;2023-05-21T10:16:29;6.63;;;3.17;;
22332;SDS011;11334;36.986;-121.936;2023-05-21T10:18:58;8.25;;;3.58;;
22332;SDS011;11334;36.986;-121.936;2023-05-21T10:21:25;12.93;;;3.17;;
22332;SDS011;11334;36.986;-121.936;2023-05-21T10:23:52;7.32;;;3.28;;
22332;SDS011;11334;36.986;-121.936;2023-05-21T10:26:23;5.50;;;2.92;;
22332;SDS011;11334;36.986;-121.936;2023-05-21T10:28:50;14.18;;;3.47;;
22332;SDS011;11334;36.986;-121.936;2023-05-21T10:31:17;6.00;;;2.95;;
22332;SDS011;11334;36.986;-121.936;2023-05-21T10:33:44;7.38;;;2.95;;
22332;SDS011;11334;36.986;-121.936;2023-05-21T10:36:10;7.95;;;3.17;;
22332;SDS011;11334;36.986;-121.936;2023-05-21T10:38:37;6.75;;;2.92;;
22332;SDS011;11334;36.986;-121.936;2023-05-21T10:41:05;8.25;;;3.00;;
22332;SDS011;11334;36.986;-121.936;2023-05-21T10:49:58;9.98;;;3.03;;
22332;SDS011;11334;36.986;-121.936;2023-05-21T10:52:33;6.22;;;3.25;;
22332;SDS011;11334;36.986;-121.936;2023-05-21T10:55:32;5.57;;;3.13;;
22332;SDS011;11334;36.986;-121.936;2023-05-21T10:58:40;6.63;;;2.80;;
22332;SDS011;11334;36.986;-121.936;2023-05-21T11:01:28;6.90;;;2.65;;
22332;SDS011;11334;36.986;-121.936;2023-05-21T11:03:58;8.02;;;2.47;;
22332;SDS011;11334;36.986;-121.936;2023-05-21T11:06:24;7.97;;;3.17;;
22332;SDS011;11334;36.986;-121.936;2023-05-21T11:08:51;5.30;;;2.97;;
22332;SDS011;11334;36.986;-121.936;2023-05-21T11:12:00;6.97;;;3.05;;
22332;SDS011;11334;36.986;-121.936;2023-05-21T11:16:59;7.78;;;2.60;;
22332;SDS011;11334;36.986;-121.936;2023-05-21T11:19:38;6.20;;;2.65;;
22332;SDS011;11334;36.986;-121.936;2023-05-21T11:22:09;6.13;;;2.80;;
22332;SDS011;11334;36.986;-121.936;2023-05-21T11:24:44;3.85;;;2.33;;
22332;SDS011;11334;36.986;-121.936;2023-05-21T11:27:10;8.15;;;3.00;;
22332;SDS011;11334;36.986;-121.936;2023-05-21T11:29:40;4.90;;;2.53;;
22332;SDS011;11334;36.986;-121.936;2023-05-21T11:34:44;4.43;;;2.30;;
22332;SDS011;11334;36.986;-121.936;2023-05-21T11:39:42;4.70;;;2.60;;
22332;SDS011;11334;36.986;-121.936;2023-05-21T11:42:09;5.88;;;2.58;;
22332;SDS011;11334;36.986;-121.936;2023-05-21T11:44:39;5.82;;;2.78;;
22332;SDS011;11334;36.986;-121.936;2023-05-21T11:47:10;8.40;;;3.30;;
22332;SDS011;11334;36.986;-121.936;2023-05-21T11:49:39;7.45;;;2.55;;
22332;SDS011;11334;36.986;-121.936;2023-05-21T11:52:06;8.10;;;2.75;;
22332;SDS011;11334;36.986;-121.936;2023-05-21T11:54:38;3.95;;;2.53;;
22332;SDS011;11334;36.986;-121.936;2023-05-21T11:57:10;5.47;;;3.20;;
22332;SDS011;11334;36.986;-121.936;2023-05-21T11:59:41;4.82;;;2.72;;
22332;SDS011;11334;36.986;-121.936;2023-05-21T12:02:07;7.03;;;3.10;;
22332;SDS011;11334;36.986;-121.936;2023-05-21T12:04:34;4.43;;;3.05;;
22332;SDS011;11334;36.986;-121.936;2023-05-21T12:07:04;5.45;;;2.60;;
22332;SDS011;11334;36.986;-121.936;2023-05-21T12:09:38;7.82;;;3.45;;
22332;SDS011;11334;36.986;-121.936;2023-05-21T12:12:06;5.90;;;2.40;;
22332;SDS011;11334;36.986;-121.936;2023-05-21T12:14:36;5.57;;;2.40;;
22332;SDS011;11334;36.986;-121.936;2023-05-21T12:17:05;3.80;;;2.65;;
22332;SDS011;11334;36.986;-121.936;2023-05-21T12:19:35;7.07;;;3.50;;
22332;SDS011;11334;36.986;-121.936;2023-05-21T12:22:02;4.95;;;2.25;;
22332;SDS011;11334;36.986;-121.936;2023-05-21T12:24:30;4.95;;;2.63;;
22332;SDS011;11334;36.986;-121.936;2023-05-21T12:26:56;4.90;;;2.75;;
22332;SDS011;11334;36.986;-121.936;2023-05-21T12:29:26;5.65;;;2.85;;
22332;SDS011;11334;36.986;-121.936;2023-05-21T12:31:57;3.30;;;2.47;;
22332;SDS011;11334;36.986;-121.936;2023-05-21T12:34:37;4.78;;;2.72;;
22332;SDS011;11334;36.986;-121.936;2023-05-21T12:37:05;6.68;;;2.53;;
22332;SDS011;11334;36.986;-121.936;2023-05-21T12:39:36;4.15;;;2.53;;
22332;SDS011;11334;36.986;-121.936;2023-05-21T12:42:05;6.80;;;3.10;;
22332;SDS011;11334;36.986;-121.936;2023-05-21T12:44:32;5.18;;;2.50;;
22332;SDS011;11334;36.986;-121.936;2023-05-21T12:46:59;3.97;;;2.22;;
22332;SDS011;11334;36.986;-121.936;2023-05-21T12:49:33;3.20;;;2.38;;
22332;SDS011;11334;36.986;-121.936;2023-05-21T12:52:02;5.43;;;2.45;;
22332;SDS011;11334;36.986;-121.936;2023-05-21T12:54:33;7.57;;;2.40;;
22332;SDS011;11334;36.986;-121.936;2023-05-21T12:57:13;5.00;;;2.45;;
22332;SDS011;11334;36.986;-121.936;2023-05-21T13:04:58;3.17;;;1.55;;
22332;SDS011;11334;36.986;-121.936;2023-05-21T13:07:27;2.20;;;1.80;;
22332;SDS011;11334;36.986;-121.936;2023-05-21T13:09:55;5.43;;;1.95;;
22332;SDS011;11334;36.986;-121.936;2023-05-21T13:12:22;5.95;;;2.40;;
22332;SDS011;11334;36.986;-121.936;2023-05-21T13:14:52;6.57;;;2.05;;
22332;SDS011;11334;36.986;-121.936;2023-05-21T13:17:20;4.07;;;1.83;;
22332;SDS011;11334;36.986;-121.936;2023-05-21T13:22:45;5.72;;;2.13;;
22332;SDS011;11334;36.986;-121.936;2023-05-21T13:25:15;4.10;;;2.10;;
22332;SDS011;11334;36.986;-121.936;2023-05-21T13:27:44;5.88;;;2.50;;
22332;SDS011;11334;36.986;-121.936;2023-05-21T13:30:11;3.58;;;1.90;;
22332;SDS011;11334;36.986;-121.936;2023-05-21T13:32:38;4.93;;;1.83;;
22332;SDS011;11334;36.986;-121.936;2023-05-21T13:35:05;4.60;;;1.95;;
22332;SDS011;11334;36.986;-121.936;2023-05-21T13:37:32;4.45;;;2.33;;
22332;SDS011;11334;36.986;-121.936;2023-05-21T13:40:02;2.20;;;2.00;;
22332;SDS011;11334;36.986;-121.936;2023-05-21T13:42:30;3.38;;;2.13;;
22332;SDS011;11334;36.986;-121.936;2023-05-21T13:44:57;4.28;;;1.67;;
22332;SDS011;11334;36.986;-121.936;2023-05-21T13:47:23;3.38;;;1.98;;
22332;SDS011;11334;36.986;-121.936;2023-05-21T13:49:50;4.68;;;1.65;;
22332;SDS011;11334;36.986;-121.936;2023-05-21T13:52:16;2.15;;;1.42;;
22332;SDS011;11334;36.986;-121.936;2023-05-21T13:54:43;4.07;;;1.50;;
22332;SDS011;11334;36.986;-121.936;2023-05-21T13:57:09;1.98;;;1.60;;
22332;SDS011;11334;36.986;-121.936;2023-05-21T13:59:35;2.22;;;1.80;;
22332;SDS011;11334;36.986;-121.936;2023-05-21T14:02:01;5.78;;;1.75;;
22332;SDS011;11334;36.986;-121.936;2023-05-21T14:04:28;2.03;;;1.30;;
22332;SDS011;11334;36.986;-121.936;2023-05-21T14:06:54;2.08;;;1.30;;
22332;SDS011;11334;36.986;-121.936;2023-05-21T14:09:20;2.17;;;1.30;;
22332;SDS011;11334;36.986;-121.936;2023-05-21T14:11:47;1.52;;;1.42;;
22332;SDS011;11334;36.986;-121.936;2023-05-21T14:14:14;3.78;;;1.35;;
22332;SDS011;11334;36.986;-121.936;2023-05-21T14:16:46;2.00;;;1.30;;
22332;SDS011;11334;36.986;-121.936;2023-05-21T14:19:13;2.38;;;1.50;;
22332;SDS011;11334;36.986;-121.936;2023-05-21T14:21:39;4.35;;;1.45;;
22332;SDS011;11334;36.986;-121.936;2023-05-21T14:24:06;3.55;;;1.63;;
22332;SDS011;11334;36.986;-121.936;2023-05-21T14:26:32;4.95;;;1.80;;
22332;SDS011;11334;36.986;-121.936;2023-05-21T14:29:01;3.53;;;1.48;;
22332;SDS011;11334;36.986;-121.936;2023-05-21T14:31:27;2.42;;;1.40;;
22332;SDS011;11334;36.986;-121.936;2023-05-21T14:33:53;2.33;;;1.35;;
22332;SDS011;11334;36.986;-121.936;2023-05-21T14:36:19;1.15;;;1.02;;
22332;SDS011;11334;36.986;-121.936;2023-05-21T14:38:45;4.13;;;1.30;;